Pleasant Plains, Arkansas
Current Conditions -  °F | °C
As of 12:15 AM on Thursday 29 Jan 2015 (Local Time) from KBVX Reporting Station
Few Clouds Few Clouds  
Wind Chill: 55°   Ceiling: Unl
Heat Index: 55°   Visibility: 10mi
Dew Point: 37°   Wind: 14mph
Humidity: 51%   Direction: 200°SSW
Pressure: 29.96"   Gusts: 28mph
Location:  35.55°N, 91.63°W
Report Text: KBVX 290615Z AUTO 20012G24KT 10SM FEW120 13/03 A2996 RMK AO1
Loading
Personal Weather Stations






























Interactive Weather Map New forecast layout! Learn more

10-Day Weather Forecast

Advertisements
Track Severe Weather on mobile